sensor_id;sensor_type;location;lat;lon;timestamp;temperature;humidity
42085;DHT22;27746;52.228;20.890;2022-11-15T10:20:28;5.50;99.90
42085;DHT22;27746;52.228;20.890;2022-11-15T10:22:59;6.00;99.90
42085;DHT22;27746;52.228;20.890;2022-11-15T10:25:28;6.00;99.90
42085;DHT22;27746;52.228;20.890;2022-11-15T10:27:57;6.10;99.90
42085;DHT22;27746;52.228;20.890;2022-11-15T10:30:33;6.10;99.90
42085;DHT22;27746;52.228;20.890;2022-11-15T10:33:20;6.10;99.90
42085;DHT22;27746;52.228;20.890;2022-11-15T10:35:48;6.20;99.90
42085;DHT22;27746;52.228;20.890;2022-11-15T10:38:15;6.20;99.90
42085;DHT22;27746;52.228;20.890;2022-11-15T10:40:42;6.20;99.90
42085;DHT22;27746;52.228;20.890;2022-11-15T10:43:15;6.70;99.90
42085;DHT22;27746;52.228;20.890;2022-11-15T10:45:44;6.30;99.90
42085;DHT22;27746;52.228;20.890;2022-11-15T10:48:25;6.90;99.90
42085;DHT22;27746;52.228;20.890;2022-11-15T10:50:53;6.30;99.90
42085;DHT22;27746;52.228;20.890;2022-11-15T10:53:27;6.30;99.90
42085;DHT22;27746;52.228;20.890;2022-11-15T10:55:58;6.40;99.90
42085;DHT22;27746;52.228;20.890;2022-11-15T10:58:35;8.20;99.90
42085;DHT22;27746;52.228;20.890;2022-11-15T11:01:15;6.90;99.90
42085;DHT22;27746;52.228;20.890;2022-11-15T11:03:44;6.50;99.90
42085;DHT22;27746;52.228;20.890;2022-11-15T11:06:13;6.50;99.90
42085;DHT22;27746;52.228;20.890;2022-11-15T11:08:53;6.50;99.90
42085;DHT22;27746;52.228;20.890;2022-11-15T11:11:20;6.60;99.90
42085;DHT22;27746;52.228;20.890;2022-11-15T11:13:47;6.60;99.90
42085;DHT22;27746;52.228;20.890;2022-11-15T11:16:32;6.60;99.90
42085;DHT22;27746;52.228;20.890;2022-11-15T11:19:08;6.60;99.90
42085;DHT22;27746;52.228;20.890;2022-11-15T11:21:46;7.90;99.90
42085;DHT22;27746;52.228;20.890;2022-11-15T11:24:22;6.70;99.90
42085;DHT22;27746;52.228;20.890;2022-11-15T11:27:02;6.70;99.90
42085;DHT22;27746;52.228;20.890;2022-11-15T11:29:42;7.50;99.90
42085;DHT22;27746;52.228;20.890;2022-11-15T11:32:23;6.70;99.90
42085;DHT22;27746;52.228;20.890;2022-11-15T11:35:05;6.80;99.90
42085;DHT22;27746;52.228;20.890;2022-11-15T11:37:39;6.80;99.90
42085;DHT22;27746;52.228;20.890;2022-11-15T11:40:19;8.30;99.90
42085;DHT22;27746;52.228;20.890;2022-11-15T11:42:54;7.10;99.90
42085;DHT22;27746;52.228;20.890;2022-11-15T11:45:41;6.80;99.90
42085;DHT22;27746;52.228;20.890;2022-11-15T11:48:18;6.80;99.90
42085;DHT22;27746;52.228;20.890;2022-11-15T11:50:45;6.80;99.90
42085;DHT22;27746;52.228;20.890;2022-11-15T11:53:15;6.80;99.90
42085;DHT22;27746;52.228;20.890;2022-11-15T11:55:47;8.00;99.90
42085;DHT22;27746;52.228;20.890;2022-11-15T11:58:18;8.80;99.90
42085;DHT22;27746;52.228;20.890;2022-11-15T12:00:49;6.90;99.90
42085;DHT22;27746;52.228;20.890;2022-11-15T12:03:25;6.90;99.90
42085;DHT22;27746;52.228;20.890;2022-11-15T12:05:56;6.90;99.90
42085;DHT22;27746;52.228;20.890;2022-11-15T12:08:30;7.70;99.90
42085;DHT22;27746;52.228;20.890;2022-11-15T12:11:03;7.00;99.90
42085;DHT22;27746;52.228;20.890;2022-11-15T12:13:35;7.00;99.90
42085;DHT22;27746;52.228;20.890;2022-11-15T12:16:08;7.00;99.90
42085;DHT22;27746;52.228;20.890;2022-11-15T12:18:37;7.10;99.90
42085;DHT22;27746;52.228;20.890;2022-11-15T12:21:13;7.60;99.90
42085;DHT22;27746;52.228;20.890;2022-11-15T12:23:43;7.60;99.90
42085;DHT22;27746;52.228;20.890;2022-11-15T12:26:17;7.10;99.90
42085;DHT22;27746;52.228;20.890;2022-11-15T12:28:49;7.10;99.90
42085;DHT22;27746;52.228;20.890;2022-11-15T12:31:22;7.10;99.90
42085;DHT22;27746;52.228;20.890;2022-11-15T12:33:55;7.50;99.90
42085;DHT22;27746;52.228;20.890;2022-11-15T12:36:36;7.80;99.90
42085;DHT22;27746;52.228;20.890;2022-11-15T12:39:04;7.10;99.90
42085;DHT22;27746;52.228;20.890;2022-11-15T12:41:32;7.10;99.90
42085;DHT22;27746;52.228;20.890;2022-11-15T12:43:59;7.70;99.90
42085;DHT22;27746;52.228;20.890;2022-11-15T12:47:04;7.90;99.90
42085;DHT22;27746;52.228;20.890;2022-11-15T12:49:45;7.10;99.90
42085;DHT22;27746;52.228;20.890;2022-11-15T12:52:12;7.10;99.90
42085;DHT22;27746;52.228;20.890;2022-11-15T12:57:45;7.10;99.90
42085;DHT22;27746;52.228;20.890;2022-11-15T13:00:45;7.10;99.90
42085;DHT22;27746;52.228;20.890;2022-11-15T13:03:24;7.20;99.90
42085;DHT22;27746;52.228;20.890;2022-11-15T13:06:04;7.10;99.90
42085;DHT22;27746;52.228;20.890;2022-11-15T13:08:37;7.20;99.90
42085;DHT22;27746;52.228;20.890;2022-11-15T13:14:39;7.20;99.90
42085;DHT22;27746;52.228;20.890;2022-11-15T13:17:30;7.20;99.90
42085;DHT22;27746;52.228;20.890;2022-11-15T13:20:17;7.20;99.90
42085;DHT22;27746;52.228;20.890;2022-11-15T13:22:47;7.10;99.90
42085;DHT22;27746;52.228;20.890;2022-11-15T13:27:58;7.10;99.90
42085;DHT22;27746;52.228;20.890;2022-11-15T13:30:29;7.80;99.90
42085;DHT22;27746;52.228;20.890;2022-11-15T13:33:00;7.10;99.90
42085;DHT22;27746;52.228;20.890;2022-11-15T13:35:30;7.00;99.90
42085;DHT22;27746;52.228;20.890;2022-11-15T13:38:04;7.10;99.90
42085;DHT22;27746;52.228;20.890;2022-11-15T13:40:36;7.00;99.90
42085;DHT22;27746;52.228;20.890;2022-11-15T13:43:23;9.60;99.90
42085;DHT22;27746;52.228;20.890;2022-11-15T13:46:07;7.00;99.90
42085;DHT22;27746;52.228;20.890;2022-11-15T13:48:34;7.00;99.90
42085;DHT22;27746;52.228;20.890;2022-11-15T13:51:02;7.00;99.90
42085;DHT22;27746;52.228;20.890;2022-11-15T13:53:32;7.00;99.90
42085;DHT22;27746;52.228;20.890;2022-11-15T13:56:00;7.10;99.90
42085;DHT22;27746;52.228;20.890;2022-11-15T13:58:29;7.00;99.90
42085;DHT22;27746;52.228;20.890;2022-11-15T14:01:01;7.00;99.90
42085;DHT22;27746;52.228;20.890;2022-11-15T14:03:30;8.20;99.90
42085;DHT22;27746;52.228;20.890;2022-11-15T14:06:05;7.30;99.90
42085;DHT22;27746;52.228;20.890;2022-11-15T14:08:35;7.70;99.90
42085;DHT22;27746;52.228;20.890;2022-11-15T14:11:13;7.00;99.90
42085;DHT22;27746;52.228;20.890;2022-11-15T14:13:41;6.90;99.90
42085;DHT22;27746;52.228;20.890;2022-11-15T14:16:17;6.90;99.90
42085;DHT22;27746;52.228;20.890;2022-11-15T14:18:48;6.80;99.90
42085;DHT22;27746;52.228;20.890;2022-11-15T14:21:16;6.80;99.90
42085;DHT22;27746;52.228;20.890;2022-11-15T14:23:44;6.80;99.90
42085;DHT22;27746;52.228;20.890;2022-11-15T14:26:27;6.70;99.90
42085;DHT22;27746;52.228;20.890;2022-11-15T14:28:54;7.00;99.90
42085;DHT22;27746;52.228;20.890;2022-11-15T14:31:21;8.30;99.90
42085;DHT22;27746;52.228;20.890;2022-11-15T14:33:48;6.60;99.90
42085;DHT22;27746;52.228;20.890;2022-11-15T14:36:17;6.60;99.90
42085;DHT22;27746;52.228;20.890;2022-11-15T14:38:46;6.60;99.90
42085;DHT22;27746;52.228;20.890;2022-11-15T14:41:21;6.60;99.90
42085;DHT22;27746;52.228;20.890;2022-11-15T14:43:48;6.50;99.90
42085;DHT22;27746;52.228;20.890;2022-11-15T14:46:15;6.80;99.90
42085;DHT22;27746;52.228;20.890;2022-11-15T14:48:42;6.60;99.90
42085;DHT22;27746;52.228;20.890;2022-11-15T14:51:14;6.60;99.90
42085;DHT22;27746;52.228;20.890;2022-11-15T14:53:42;6.70;99.90
42085;DHT22;27746;52.228;20.890;2022-11-15T14:56:11;6.70;99.90
42085;DHT22;27746;52.228;20.890;2022-11-15T14:58:38;6.60;99.90
42085;DHT22;27746;52.228;20.890;2022-11-15T15:01:12;8.90;99.90
42085;DHT22;27746;52.228;20.890;2022-11-15T15:03:39;6.50;99.90
42085;DHT22;27746;52.228;20.890;2022-11-15T15:06:05;6.60;99.90
42085;DHT22;27746;52.228;20.890;2022-11-15T15:08:34;6.50;99.90
42085;DHT22;27746;52.228;20.890;2022-11-15T15:11:01;7.40;99.90
42085;DHT22;27746;52.228;20.890;2022-11-15T15:13:29;7.90;99.90
42085;DHT22;27746;52.228;20.890;2022-11-15T15:15:56;6.50;99.90
42085;DHT22;27746;52.228;20.890;2022-11-15T15:18:22;7.40;99.90
42085;DHT22;27746;52.228;20.890;2022-11-15T15:20:55;6.50;99.90
42085;DHT22;27746;52.228;20.890;2022-11-15T15:23:22;8.00;99.90
42085;DHT22;27746;52.228;20.890;2022-11-15T15:25:51;7.70;99.90
42085;DHT22;27746;52.228;20.890;2022-11-15T15:28:18;6.50;99.90
42085;DHT22;27746;52.228;20.890;2022-11-15T15:30:46;6.50;99.90
42085;DHT22;27746;52.228;20.890;2022-11-15T15:33:14;6.50;99.90
42085;DHT22;27746;52.228;20.890;2022-11-15T15:35:41;6.50;99.90
42085;DHT22;27746;52.228;20.890;2022-11-15T15:38:10;6.50;99.90
42085;DHT22;27746;52.228;20.890;2022-11-15T15:40:38;6.40;99.90
42085;DHT22;27746;52.228;20.890;2022-11-15T15:43:05;7.60;99.90
42085;DHT22;27746;52.228;20.890;2022-11-15T15:45:35;6.40;99.90
42085;DHT22;27746;52.228;20.890;2022-11-15T15:48:03;6.70;99.90
42085;DHT22;27746;52.228;20.890;2022-11-15T15:50:33;6.40;99.90
42085;DHT22;27746;52.228;20.890;2022-11-15T15:53:02;6.30;99.90
42085;DHT22;27746;52.228;20.890;2022-11-15T15:55:29;8.60;99.90
42085;DHT22;27746;52.228;20.890;2022-11-15T15:57:56;6.30;99.90
42085;DHT22;27746;52.228;20.890;2022-11-15T16:00:24;6.30;99.90
42085;DHT22;27746;52.228;20.890;2022-11-15T16:02:52;7.00;99.90
42085;DHT22;27746;52.228;20.890;2022-11-15T16:05:22;7.70;99.90
42085;DHT22;27746;52.228;20.890;2022-11-15T16:07:48;6.40;99.90
42085;DHT22;27746;52.228;20.890;2022-11-15T16:10:22;6.40;99.90
42085;DHT22;27746;52.228;20.890;2022-11-15T16:12:51;6.40;99.90
42085;DHT22;27746;52.228;20.890;2022-11-15T16:15:19;7.00;99.90
42085;DHT22;27746;52.228;20.890;2022-11-15T16:17:49;9.20;99.90
42085;DHT22;27746;52.228;20.890;2022-11-15T16:20:30;6.30;99.90
42085;DHT22;27746;52.228;20.890;2022-11-15T16:22:57;6.30;99.90
42085;DHT22;27746;52.228;20.890;2022-11-15T16:25:25;9.20;99.90
42085;DHT22;27746;52.228;20.890;2022-11-15T16:27:52;6.20;99.90
42085;DHT22;27746;52.228;20.890;2022-11-15T16:30:20;6.20;99.90
42085;DHT22;27746;52.228;20.890;2022-11-15T16:32:47;6.20;99.90
42085;DHT22;27746;52.228;20.890;2022-11-15T16:35:15;6.20;99.90
42085;DHT22;27746;52.228;20.890;2022-11-15T16:37:43;7.40;99.90
42085;DHT22;27746;52.228;20.890;2022-11-15T16:40:19;7.60;99.90
42085;DHT22;27746;52.228;20.890;2022-11-15T16:42:48;7.30;99.90
42085;DHT22;27746;52.228;20.890;2022-11-15T16:45:15;6.10;99.90
42085;DHT22;27746;52.228;20.890;2022-11-15T16:47:42;6.10;99.90
42085;DHT22;27746;52.228;20.890;2022-11-15T16:50:17;7.10;99.90
42085;DHT22;27746;52.228;20.890;2022-11-15T16:52:50;7.00;99.90
42085;DHT22;27746;52.228;20.890;2022-11-15T16:55:17;8.10;99.90
42085;DHT22;27746;52.228;20.890;2022-11-15T16:57:44;6.10;99.90
42085;DHT22;27746;52.228;20.890;2022-11-15T17:00:12;6.10;99.90
42085;DHT22;27746;52.228;20.890;2022-11-15T17:02:41;6.10;99.90
42085;DHT22;27746;52.228;20.890;2022-11-15T17:05:08;6.10;99.90
42085;DHT22;27746;52.228;20.890;2022-11-15T17:07:34;6.40;99.90
42085;DHT22;27746;52.228;20.890;2022-11-15T17:10:03;6.10;99.90
42085;DHT22;27746;52.228;20.890;2022-11-15T17:12:30;6.10;99.90
42085;DHT22;27746;52.228;20.890;2022-11-15T17:14:56;6.10;99.90
42085;DHT22;27746;52.228;20.890;2022-11-15T17:17:23;6.10;99.90
42085;DHT22;27746;52.228;20.890;2022-11-15T17:19:50;5.30;99.90
42085;DHT22;27746;52.228;20.890;2022-11-15T17:22:17;6.10;99.90
42085;DHT22;27746;52.228;20.890;2022-11-15T17:24:44;6.00;99.90
42085;DHT22;27746;52.228;20.890;2022-11-15T17:27:12;6.00;99.90
42085;DHT22;27746;52.228;20.890;2022-11-15T17:29:39;6.00;99.90
42085;DHT22;27746;52.228;20.890;2022-11-15T17:32:06;6.00;99.90
42085;DHT22;27746;52.228;20.890;2022-11-15T17:34:34;6.10;99.90
42085;DHT22;27746;52.228;20.890;2022-11-15T17:37:00;6.10;99.90
42085;DHT22;27746;52.228;20.890;2022-11-15T17:39:27;6.10;99.90
42085;DHT22;27746;52.228;20.890;2022-11-15T17:41:54;6.40;99.90
42085;DHT22;27746;52.228;20.890;2022-11-15T17:44:22;6.10;99.90
42085;DHT22;27746;52.228;20.890;2022-11-15T17:46:49;6.10;99.90
42085;DHT22;27746;52.228;20.890;2022-11-15T17:49:16;6.00;99.90
42085;DHT22;27746;52.228;20.890;2022-11-15T17:51:43;7.30;99.90
42085;DHT22;27746;52.228;20.890;2022-11-15T17:54:10;7.30;99.90
42085;DHT22;27746;52.228;20.890;2022-11-15T17:56:38;5.90;99.90
42085;DHT22;27746;52.228;20.890;2022-11-15T17:59:05;6.30;99.90
42085;DHT22;27746;52.228;20.890;2022-11-15T18:01:34;5.90;99.90
42085;DHT22;27746;52.228;20.890;2022-11-15T18:04:03;5.80;99.90
42085;DHT22;27746;52.228;20.890;2022-11-15T18:06:31;5.80;99.90
42085;DHT22;27746;52.228;20.890;2022-11-15T18:08:59;5.80;99.90
42085;DHT22;27746;52.228;20.890;2022-11-15T18:11:27;5.70;99.90
42085;DHT22;27746;52.228;20.890;2022-11-15T18:13:56;5.70;99.90
42085;DHT22;27746;52.228;20.890;2022-11-15T18:16:25;5.70;99.90
42085;DHT22;27746;52.228;20.890;2022-11-15T18:18:54;5.70;99.90
42085;DHT22;27746;52.228;20.890;2022-11-15T18:21:22;5.70;99.90
42085;DHT22;27746;52.228;20.890;2022-11-15T18:23:52;5.70;99.90
42085;DHT22;27746;52.228;20.890;2022-11-15T18:26:19;5.70;99.90
42085;DHT22;27746;52.228;20.890;2022-11-15T18:28:48;5.80;99.90
42085;DHT22;27746;52.228;20.890;2022-11-15T18:31:16;5.80;99.90
42085;DHT22;27746;52.228;20.890;2022-11-15T18:33:44;5.80;99.90
42085;DHT22;27746;52.228;20.890;2022-11-15T18:36:13;5.80;99.90
42085;DHT22;27746;52.228;20.890;2022-11-15T18:38:40;5.80;99.90
42085;DHT22;27746;52.228;20.890;2022-11-15T18:41:09;5.70;99.90
42085;DHT22;27746;52.228;20.890;2022-11-15T18:43:36;5.70;99.90
42085;DHT22;27746;52.228;20.890;2022-11-15T18:46:04;5.80;99.90
42085;DHT22;27746;52.228;20.890;2022-11-15T18:48:31;5.70;99.90
42085;DHT22;27746;52.228;20.890;2022-11-15T18:51:01;5.70;99.90
42085;DHT22;27746;52.228;20.890;2022-11-15T18:53:29;5.70;99.90
42085;DHT22;27746;52.228;20.890;2022-11-15T18:55:59;5.60;99.90
42085;DHT22;27746;52.228;20.890;2022-11-15T18:58:28;5.60;99.90
42085;DHT22;27746;52.228;20.890;2022-11-15T19:00:59;5.60;99.90
42085;DHT22;27746;52.228;20.890;2022-11-15T19:03:29;5.60;99.90
42085;DHT22;27746;52.228;20.890;2022-11-15T19:06:02;5.60;99.90
42085;DHT22;27746;52.228;20.890;2022-11-15T19:08:32;5.50;99.90
42085;DHT22;27746;52.228;20.890;2022-11-15T19:11:02;5.50;99.90
42085;DHT22;27746;52.228;20.890;2022-11-15T19:13:29;5.50;99.90
42085;DHT22;27746;52.228;20.890;2022-11-15T19:15:57;5.50;99.90
42085;DHT22;27746;52.228;20.890;2022-11-15T19:18:24;6.50;99.90
42085;DHT22;27746;52.228;20.890;2022-11-15T19:20:51;5.40;99.90
42085;DHT22;27746;52.228;20.890;2022-11-15T19:23:19;5.40;99.90
42085;DHT22;27746;52.228;20.890;2022-11-15T19:25:54;5.40;99.90
42085;DHT22;27746;52.228;20.890;2022-11-15T19:28:21;5.70;99.90
42085;DHT22;27746;52.228;20.890;2022-11-15T19:30:48;5.30;99.90
42085;DHT22;27746;52.228;20.890;2022-11-15T19:33:17;5.30;99.90
42085;DHT22;27746;52.228;20.890;2022-11-15T19:35:44;5.30;99.90
42085;DHT22;27746;52.228;20.890;2022-11-15T19:38:11;5.20;99.90
42085;DHT22;27746;52.228;20.890;2022-11-15T19:40:37;5.20;99.90
42085;DHT22;27746;52.228;20.890;2022-11-15T19:43:06;5.20;99.90
42085;DHT22;27746;52.228;20.890;2022-11-15T19:45:32;5.20;99.90
42085;DHT22;27746;52.228;20.890;2022-11-15T19:47:59;5.20;99.90
42085;DHT22;27746;52.228;20.890;2022-11-15T19:50:26;5.40;99.90
42085;DHT22;27746;52.228;20.890;2022-11-15T19:52:52;5.20;99.90
42085;DHT22;27746;52.228;20.890;2022-11-15T19:55:19;5.20;99.90
42085;DHT22;27746;52.228;20.890;2022-11-15T19:57:46;5.30;99.90
42085;DHT22;27746;52.228;20.890;2022-11-15T20:00:14;5.20;99.90
42085;DHT22;27746;52.228;20.890;2022-11-15T20:02:41;5.20;99.90
42085;DHT22;27746;52.228;20.890;2022-11-15T20:05:08;5.20;99.90
42085;DHT22;27746;52.228;20.890;2022-11-15T20:07:35;5.20;99.90
42085;DHT22;27746;52.228;20.890;2022-11-15T20:10:01;5.20;99.90
42085;DHT22;27746;52.228;20.890;2022-11-15T20:12:28;5.20;99.90
42085;DHT22;27746;52.228;20.890;2022-11-15T20:14:55;5.20;99.90
42085;DHT22;27746;52.228;20.890;2022-11-15T20:17:23;5.20;99.90
42085;DHT22;27746;52.228;20.890;2022-11-15T20:19:50;5.20;99.90
42085;DHT22;27746;52.228;20.890;2022-11-15T20:22:16;5.20;99.90
42085;DHT22;27746;52.228;20.890;2022-11-15T20:24:43;5.10;99.90
42085;DHT22;27746;52.228;20.890;2022-11-15T20:27:10;5.10;99.90
42085;DHT22;27746;52.228;20.890;2022-11-15T20:29:37;5.10;99.90
42085;DHT22;27746;52.228;20.890;2022-11-15T20:32:04;5.10;99.90
42085;DHT22;27746;52.228;20.890;2022-11-15T20:34:32;5.10;99.90
42085;DHT22;27746;52.228;20.890;2022-11-15T20:36:58;5.70;99.90
42085;DHT22;27746;52.228;20.890;2022-11-15T20:39:25;5.80;99.90
42085;DHT22;27746;52.228;20.890;2022-11-15T20:41:52;5.10;99.90
42085;DHT22;27746;52.228;20.890;2022-11-15T20:44:19;5.10;99.90
42085;DHT22;27746;52.228;20.890;2022-11-15T20:46:45;5.10;99.90
42085;DHT22;27746;52.228;20.890;2022-11-15T20:49:12;5.00;99.90
42085;DHT22;27746;52.228;20.890;2022-11-15T20:51:40;5.00;99.90
42085;DHT22;27746;52.228;20.890;2022-11-15T20:54:07;5.10;99.90
42085;DHT22;27746;52.228;20.890;2022-11-15T20:56:34;5.10;99.90
42085;DHT22;27746;52.228;20.890;2022-11-15T20:59:01;5.10;99.90
42085;DHT22;27746;52.228;20.890;2022-11-15T21:01:28;5.10;99.90
42085;DHT22;27746;52.228;20.890;2022-11-15T21:03:56;5.00;99.90
42085;DHT22;27746;52.228;20.890;2022-11-15T21:06:24;5.00;99.90
42085;DHT22;27746;52.228;20.890;2022-11-15T21:08:54;5.00;99.90
42085;DHT22;27746;52.228;20.890;2022-11-15T21:11:38;5.00;99.90
42085;DHT22;27746;52.228;20.890;2022-11-15T21:14:22;5.00;99.90
42085;DHT22;27746;52.228;20.890;2022-11-15T21:16:51;5.00;99.90
42085;DHT22;27746;52.228;20.890;2022-11-15T21:19:17;5.00;99.90
42085;DHT22;27746;52.228;20.890;2022-11-15T21:21:45;5.00;99.90
42085;DHT22;27746;52.228;20.890;2022-11-15T21:24:13;5.00;99.90
42085;DHT22;27746;52.228;20.890;2022-11-15T21:26:39;5.00;99.90
42085;DHT22;27746;52.228;20.890;2022-11-15T21:29:06;7.40;99.90
42085;DHT22;27746;52.228;20.890;2022-11-15T21:31:33;5.00;99.90
42085;DHT22;27746;52.228;20.890;2022-11-15T21:34:02;5.00;99.90
42085;DHT22;27746;52.228;20.890;2022-11-15T21:36:29;5.00;99.90
42085;DHT22;27746;52.228;20.890;2022-11-15T21:38:55;5.00;99.90
42085;DHT22;27746;52.228;20.890;2022-11-15T21:41:24;5.10;99.90
42085;DHT22;27746;52.228;20.890;2022-11-15T21:43:50;4.10;99.90
42085;DHT22;27746;52.228;20.890;2022-11-15T21:46:17;5.00;99.90
42085;DHT22;27746;52.228;20.890;2022-11-15T21:48:45;5.10;99.90
42085;DHT22;27746;52.228;20.890;2022-11-15T21:51:12;5.00;99.90
42085;DHT22;27746;52.228;20.890;2022-11-15T21:53:39;5.00;99.90
42085;DHT22;27746;52.228;20.890;2022-11-15T21:56:07;5.00;99.90
42085;DHT22;27746;52.228;20.890;2022-11-15T21:58:35;5.00;99.90
42085;DHT22;27746;52.228;20.890;2022-11-15T22:01:02;5.10;99.90
42085;DHT22;27746;52.228;20.890;2022-11-15T22:03:46;5.10;99.90
42085;DHT22;27746;52.228;20.890;2022-11-15T22:06:13;5.10;99.90
42085;DHT22;27746;52.228;20.890;2022-11-15T22:08:40;5.10;99.90
42085;DHT22;27746;52.228;20.890;2022-11-15T22:11:08;5.10;99.90
42085;DHT22;27746;52.228;20.890;2022-11-15T22:13:36;5.10;99.90
42085;DHT22;27746;52.228;20.890;2022-11-15T22:16:03;5.10;99.90
42085;DHT22;27746;52.228;20.890;2022-11-15T22:18:30;5.10;99.90
42085;DHT22;27746;52.228;20.890;2022-11-15T22:20:58;5.10;99.90
42085;DHT22;27746;52.228;20.890;2022-11-15T22:23:26;5.10;99.90
42085;DHT22;27746;52.228;20.890;2022-11-15T22:25:53;5.10;99.90
42085;DHT22;27746;52.228;20.890;2022-11-15T22:28:21;4.50;99.90
42085;DHT22;27746;52.228;20.890;2022-11-15T22:30:51;5.10;99.90
42085;DHT22;27746;52.228;20.890;2022-11-15T22:33:21;5.10;99.90
42085;DHT22;27746;52.228;20.890;2022-11-15T22:35:48;5.10;99.90
42085;DHT22;27746;52.228;20.890;2022-11-15T22:38:15;5.10;99.90
42085;DHT22;27746;52.228;20.890;2022-11-15T22:40:42;5.10;99.90
42085;DHT22;27746;52.228;20.890;2022-11-15T22:43:12;5.10;99.90
42085;DHT22;27746;52.228;20.890;2022-11-15T22:45:45;5.10;99.90
42085;DHT22;27746;52.228;20.890;2022-11-15T22:48:14;5.10;99.90
42085;DHT22;27746;52.228;20.890;2022-11-15T22:50:41;5.10;99.90
42085;DHT22;27746;52.228;20.890;2022-11-15T22:53:08;5.20;99.90
42085;DHT22;27746;52.228;20.890;2022-11-15T22:55:36;5.20;99.90
42085;DHT22;27746;52.228;20.890;2022-11-15T22:58:03;5.20;99.90
42085;DHT22;27746;52.228;20.890;2022-11-15T23:00:30;5.20;99.90
42085;DHT22;27746;52.228;20.890;2022-11-15T23:02:56;5.20;99.90
42085;DHT22;27746;52.228;20.890;2022-11-15T23:05:25;5.20;99.90
42085;DHT22;27746;52.228;20.890;2022-11-15T23:07:51;5.20;99.90
42085;DHT22;27746;52.228;20.890;2022-11-15T23:10:18;5.20;99.90
42085;DHT22;27746;52.228;20.890;2022-11-15T23:13:03;5.20;99.90
42085;DHT22;27746;52.228;20.890;2022-11-15T23:15:43;5.20;99.90
42085;DHT22;27746;52.228;20.890;2022-11-15T23:18:27;5.30;99.90
42085;DHT22;27746;52.228;20.890;2022-11-15T23:20:55;5.30;99.90
42085;DHT22;27746;52.228;20.890;2022-11-15T23:23:22;5.30;99.90
42085;DHT22;27746;52.228;20.890;2022-11-15T23:25:56;5.30;99.90
42085;DHT22;27746;52.228;20.890;2022-11-15T23:28:23;5.30;99.90
42085;DHT22;27746;52.228;20.890;2022-11-15T23:30:49;5.30;99.90
42085;DHT22;27746;52.228;20.890;2022-11-15T23:33:34;5.30;99.90
42085;DHT22;27746;52.228;20.890;2022-11-15T23:36:19;5.30;99.90
42085;DHT22;27746;52.228;20.890;2022-11-15T23:38:46;5.30;99.90
42085;DHT22;27746;52.228;20.890;2022-11-15T23:41:12;5.30;99.90
42085;DHT22;27746;52.228;20.890;2022-11-15T23:43:39;5.30;99.90
42085;DHT22;27746;52.228;20.890;2022-11-15T23:46:06;5.40;99.90
42085;DHT22;27746;52.228;20.890;2022-11-15T23:48:33;5.30;99.90
42085;DHT22;27746;52.228;20.890;2022-11-15T23:51:00;5.30;99.90
42085;DHT22;27746;52.228;20.890;2022-11-15T23:53:29;5.30;99.90
42085;DHT22;27746;52.228;20.890;2022-11-15T23:55:58;8.20;99.90
42085;DHT22;27746;52.228;20.890;2022-11-15T23:58:26;5.40;99.90
